createdAt,value
2022-11-23T00:01:42.425Z,1.83
2022-11-23T00:04:12.655Z,1.81
2022-11-23T00:06:40.714Z,1.80
2022-11-23T00:09:09.065Z,1.79
2022-11-23T00:11:37.542Z,1.87
2022-11-23T00:14:05.586Z,1.84
2022-11-23T00:16:33.752Z,1.80
2022-11-23T00:19:04.731Z,1.82
2022-11-23T00:21:32.698Z,1.82
2022-11-23T00:24:00.789Z,1.75
2022-11-23T00:26:29.121Z,1.85
2022-11-23T00:29:00.962Z,1.83
2022-11-23T00:31:28.729Z,1.77
2022-11-23T00:33:57.315Z,1.80
2022-11-23T00:36:25.970Z,1.76
2022-11-23T00:39:31.664Z,1.77
2022-11-23T00:41:59.804Z,1.85
2022-11-23T00:44:27.661Z,1.86
2022-11-23T00:47:02.005Z,1.80
2022-11-23T00:49:30.136Z,1.85
2022-11-23T00:51:59.140Z,1.89
2022-11-23T00:54:27.200Z,1.80
2022-11-23T00:56:56.163Z,1.88
2022-11-23T00:59:24.790Z,1.83
2022-11-23T01:01:56.919Z,1.86
2022-11-23T01:04:25.897Z,1.87
2022-11-23T01:06:56.079Z,1.82
2022-11-23T01:09:26.832Z,1.87
2022-11-23T01:11:54.965Z,1.87
2022-11-23T01:14:25.069Z,1.79
2022-11-23T01:16:55.652Z,1.79
2022-11-23T01:19:23.355Z,1.72
2022-11-23T01:21:51.330Z,1.65
2022-11-23T01:24:23.088Z,1.64
2022-11-23T01:26:51.935Z,1.68
2022-11-23T01:29:21.976Z,1.69
2022-11-23T01:31:49.897Z,1.65
2022-11-23T01:34:18.061Z,1.63
2022-11-23T01:36:46.377Z,1.67
2022-11-23T01:39:14.380Z,1.68
2022-11-23T01:41:43.057Z,1.65
2022-11-23T01:44:30.144Z,1.67
2022-11-23T01:46:59.886Z,1.66
2022-11-23T01:49:34.160Z,1.70
2022-11-23T01:52:06.194Z,1.70
2022-11-23T01:54:38.875Z,1.71
2022-11-23T01:57:13.022Z,1.72
2022-11-23T01:59:42.413Z,1.66
2022-11-23T02:02:09.987Z,1.62
2022-11-23T02:04:39.471Z,1.62
2022-11-23T02:07:07.255Z,1.67
2022-11-23T02:09:35.071Z,1.64
2022-11-23T02:12:10.836Z,1.70
2022-11-23T02:14:41.325Z,1.66
2022-11-23T02:17:09.289Z,1.63
2022-11-23T02:20:12.931Z,1.67
2022-11-23T02:23:09.594Z,1.74
2022-11-23T02:25:43.842Z,1.73
2022-11-23T02:28:17.260Z,1.68
2022-11-23T02:30:45.982Z,1.66
2022-11-23T02:33:14.643Z,1.67
2022-11-23T02:35:53.374Z,1.68
2022-11-23T02:38:24.064Z,1.72
2022-11-23T02:40:51.983Z,1.69
2022-11-23T02:43:22.994Z,1.70
2022-11-23T02:45:56.099Z,1.77
2022-11-23T02:48:25.990Z,1.78
2022-11-23T02:50:53.578Z,1.73
2022-11-23T02:53:21.393Z,1.73
2022-11-23T02:55:49.385Z,1.69
2022-11-23T02:58:18.889Z,1.71
2022-11-23T03:00:47.784Z,1.76
2022-11-23T03:03:18.833Z,1.73
2022-11-23T03:05:46.852Z,1.71
2022-11-23T03:08:14.520Z,1.75
2022-11-23T03:10:43.661Z,1.74
2022-11-23T03:13:12.295Z,1.76
2022-11-23T03:15:41.792Z,1.74
2022-11-23T03:18:10.854Z,1.80
2022-11-23T03:20:39.471Z,1.86
2022-11-23T03:23:07.976Z,1.88
2022-11-23T03:25:36.143Z,1.84
2022-11-23T03:28:05.786Z,1.86
2022-11-23T03:30:34.576Z,1.85
2022-11-23T03:33:04.747Z,1.85
2022-11-23T03:35:32.773Z,1.84
2022-11-23T03:38:21.612Z,1.92
2022-11-23T03:40:49.684Z,1.86
2022-11-23T03:43:23.175Z,1.89
2022-11-23T03:45:51.288Z,1.81
2022-11-23T03:48:19.311Z,1.93
2022-11-23T03:50:47.300Z,1.91
2022-11-23T03:53:14.905Z,1.95
2022-11-23T03:55:46.965Z,1.93
2022-11-23T03:58:15.678Z,2.02
2022-11-23T04:00:43.693Z,2.03
2022-11-23T04:03:14.056Z,1.96
2022-11-23T04:06:08.035Z,2.04
2022-11-23T07:40:25.525Z,3.15
2022-11-23T07:43:39.449Z,3.06
2022-11-23T07:46:19.110Z,3.00
2022-11-23T07:48:50.876Z,3.16
2022-11-23T07:51:20.419Z,3.04
2022-11-23T07:53:48.852Z,3.08
2022-11-23T07:56:17.114Z,3.15
2022-11-23T07:58:45.006Z,3.10
2022-11-23T08:01:18.573Z,2.96
2022-11-23T08:03:50.336Z,3.02
2022-11-23T08:06:19.044Z,3.09
2022-11-23T08:08:47.150Z,3.18
2022-11-23T08:11:17.341Z,3.20
2022-11-23T08:13:45.917Z,3.24
2022-11-23T08:16:17.002Z,3.12
2022-11-23T08:18:46.630Z,3.37
2022-11-23T08:21:15.543Z,3.18
2022-11-23T08:23:44.282Z,3.18
2022-11-23T08:26:13.976Z,3.26
2022-11-23T08:28:43.801Z,3.28
2022-11-23T08:31:12.825Z,3.29
2022-11-23T08:33:41.456Z,3.21
2022-11-23T08:36:10.838Z,3.28
2022-11-23T08:38:38.999Z,3.24
2022-11-23T08:41:08.253Z,3.31
2022-11-23T08:43:37.389Z,3.37
2022-11-23T08:46:11.126Z,3.52
2022-11-23T08:48:39.850Z,3.64
2022-11-23T08:51:08.045Z,3.72
2022-11-23T08:53:37.081Z,3.68
2022-11-23T08:56:07.970Z,3.90
2022-11-23T08:58:37.128Z,3.90
2022-11-23T09:01:16.239Z,3.71
2022-11-23T09:03:44.957Z,3.53
2022-11-23T09:06:13.673Z,3.55
2022-11-23T09:08:41.965Z,3.62
2022-11-23T09:11:12.356Z,3.76
2022-11-23T09:13:41.712Z,3.80
2022-11-23T09:16:11.351Z,3.73
2022-11-23T09:18:39.751Z,3.73
2022-11-23T09:21:08.217Z,3.80
2022-11-23T09:23:38.296Z,3.90
2022-11-23T09:26:06.367Z,3.75
2022-11-23T09:28:34.458Z,3.83
2022-11-23T09:31:03.507Z,3.80
2022-11-23T09:33:32.558Z,3.79
2022-11-23T09:36:01.441Z,3.81
2022-11-23T09:38:54.983Z,3.54
2022-11-23T09:41:37.964Z,3.83
2022-11-23T09:44:17.653Z,3.90
2022-11-23T09:46:58.834Z,3.76
2022-11-23T09:49:51.682Z,3.91
2022-11-23T09:52:21.339Z,4.12
2022-11-23T09:54:49.989Z,4.18
2022-11-23T09:57:20.355Z,4.09
2022-11-23T10:00:04.382Z,3.99
2022-11-23T10:02:39.703Z,4.01
2022-11-23T10:05:08.221Z,4.06
2022-11-23T10:07:45.196Z,4.13
2022-11-23T10:10:26.794Z,4.02
2022-11-23T10:13:19.724Z,4.06
2022-11-23T10:15:49.514Z,4.11
2022-11-23T10:18:53.828Z,4.00
2022-11-23T10:21:22.368Z,4.11
2022-11-23T10:24:11.295Z,4.07
2022-11-23T10:26:41.613Z,4.12
2022-11-23T10:29:36.461Z,4.19
2022-11-23T10:32:14.498Z,4.26
2022-11-23T10:35:12.462Z,4.17
2022-11-23T10:37:41.644Z,3.89
2022-11-23T10:40:24.151Z,3.96
2022-11-23T10:42:58.568Z,3.91
2022-11-23T10:45:27.874Z,3.89
2022-11-23T10:48:00.951Z,4.01
2022-11-23T10:50:41.879Z,4.22
2022-11-23T10:53:10.685Z,4.09
2022-11-23T10:56:12.028Z,3.87
2022-11-23T10:58:45.252Z,3.77
2022-11-23T11:01:20.576Z,3.93
2022-11-23T11:03:51.717Z,3.72
2022-11-23T11:06:28.741Z,3.80
2022-11-23T11:09:13.392Z,3.72
2022-11-23T11:11:47.057Z,3.73
2022-11-23T11:14:18.364Z,3.70
2022-11-23T11:16:47.949Z,3.79
2022-11-23T11:19:23.394Z,3.63
2022-11-23T11:21:52.542Z,3.76
2022-11-23T11:24:40.496Z,3.72
2022-11-23T11:27:17.577Z,3.71
2022-11-23T11:32:52.611Z,3.67
2022-11-23T11:35:26.176Z,3.75
2022-11-23T11:38:01.228Z,3.89
2022-11-23T11:40:33.671Z,3.88
2022-11-23T11:43:12.307Z,3.97
2022-11-23T11:46:13.123Z,4.09
2022-11-23T11:48:58.129Z,4.11
2022-11-23T11:51:44.736Z,4.03
2022-11-23T11:54:33.702Z,3.96
2022-11-23T11:57:09.649Z,4.08
2022-11-23T11:59:45.624Z,4.12
2022-11-23T12:02:21.610Z,4.04
2022-11-23T12:05:05.953Z,4.31
2022-11-23T12:07:41.713Z,4.40
2022-11-23T12:10:30.494Z,4.36
2022-11-23T12:12:58.976Z,4.83
2022-11-23T12:15:50.597Z,5.01
2022-11-23T12:18:56.484Z,5.23
2022-11-23T12:22:03.002Z,5.27
